sensor_id;sensor_type;location;lat;lon;timestamp;temperature;humidity
64599;SHT31;51008;51.504;11.548;2023-12-14T00:02:01;6.03;99.99
64599;SHT31;51008;51.504;11.548;2023-12-14T00:07:02;5.98;99.99
64599;SHT31;51008;51.504;11.548;2023-12-14T00:12:03;5.95;99.99
64599;SHT31;51008;51.504;11.548;2023-12-14T00:17:04;5.91;99.99
64599;SHT31;51008;51.504;11.548;2023-12-14T00:22:06;5.89;99.99
64599;SHT31;51008;51.504;11.548;2023-12-14T00:27:07;5.84;99.99
64599;SHT31;51008;51.504;11.548;2023-12-14T00:32:08;5.78;99.99
64599;SHT31;51008;51.504;11.548;2023-12-14T00:37:27;5.67;99.99
64599;SHT31;51008;51.504;11.548;2023-12-14T00:42:34;5.63;99.99
64599;SHT31;51008;51.504;11.548;2023-12-14T00:47:36;5.61;99.99
64599;SHT31;51008;51.504;11.548;2023-12-14T00:52:37;5.60;99.99
64599;SHT31;51008;51.504;11.548;2023-12-14T00:57:38;5.55;99.99
64599;SHT31;51008;51.504;11.548;2023-12-14T01:02:39;5.48;99.99
64599;SHT31;51008;51.504;11.548;2023-12-14T01:07:40;5.46;99.99
64599;SHT31;51008;51.504;11.548;2023-12-14T01:12:41;5.39;99.99
64599;SHT31;51008;51.504;11.548;2023-12-14T01:17:42;5.43;99.99
64599;SHT31;51008;51.504;11.548;2023-12-14T01:22:43;5.42;99.99
64599;SHT31;51008;51.504;11.548;2023-12-14T01:27:44;5.40;99.99
64599;SHT31;51008;51.504;11.548;2023-12-14T01:32:45;5.36;99.99
64599;SHT31;51008;51.504;11.548;2023-12-14T01:37:46;5.30;99.99
64599;SHT31;51008;51.504;11.548;2023-12-14T01:42:47;5.27;99.99
64599;SHT31;51008;51.504;11.548;2023-12-14T01:47:48;5.29;99.99
64599;SHT31;51008;51.504;11.548;2023-12-14T01:52:49;5.22;99.99
64599;SHT31;51008;51.504;11.548;2023-12-14T01:57:50;5.23;99.99
64599;SHT31;51008;51.504;11.548;2023-12-14T02:02:51;5.16;99.99
64599;SHT31;51008;51.504;11.548;2023-12-14T02:07:52;5.13;99.99
64599;SHT31;51008;51.504;11.548;2023-12-14T02:12:54;5.12;99.99
64599;SHT31;51008;51.504;11.548;2023-12-14T02:18:13;5.08;99.99
64599;SHT31;51008;51.504;11.548;2023-12-14T02:23:21;5.07;99.99
64599;SHT31;51008;51.504;11.548;2023-12-14T02:28:40;4.98;99.99
64599;SHT31;51008;51.504;11.548;2023-12-14T02:33:48;4.96;99.99
64599;SHT31;51008;51.504;11.548;2023-12-14T02:38:49;4.95;99.99
64599;SHT31;51008;51.504;11.548;2023-12-14T02:43:50;4.92;99.99
64599;SHT31;51008;51.504;11.548;2023-12-14T02:48:51;4.95;99.99
64599;SHT31;51008;51.504;11.548;2023-12-14T02:53:53;4.91;99.99
64599;SHT31;51008;51.504;11.548;2023-12-14T02:58:54;4.84;99.99
64599;SHT31;51008;51.504;11.548;2023-12-14T03:03:55;4.78;99.99
64599;SHT31;51008;51.504;11.548;2023-12-14T03:09:15;4.71;99.99
64599;SHT31;51008;51.504;11.548;2023-12-14T03:14:22;4.67;99.99
64599;SHT31;51008;51.504;11.548;2023-12-14T03:19:42;4.58;99.99
64599;SHT31;51008;51.504;11.548;2023-12-14T03:24:49;4.54;99.99
64599;SHT31;51008;51.504;11.548;2023-12-14T03:29:50;4.50;99.99
64599;SHT31;51008;51.504;11.548;2023-12-14T03:34:51;4.49;99.99
64599;SHT31;51008;51.504;11.548;2023-12-14T03:39:52;4.45;99.99
64599;SHT31;51008;51.504;11.548;2023-12-14T03:44:53;4.42;99.99
64599;SHT31;51008;51.504;11.548;2023-12-14T03:49:54;4.39;99.99
64599;SHT31;51008;51.504;11.548;2023-12-14T03:54:55;4.36;99.99
64599;SHT31;51008;51.504;11.548;2023-12-14T03:59:56;4.38;99.99
64599;SHT31;51008;51.504;11.548;2023-12-14T04:04:57;4.40;99.99
64599;SHT31;51008;51.504;11.548;2023-12-14T04:09:58;4.38;99.99
64599;SHT31;51008;51.504;11.548;2023-12-14T04:14:59;4.35;99.99
64599;SHT31;51008;51.504;11.548;2023-12-14T04:20:00;4.40;99.99
64599;SHT31;51008;51.504;11.548;2023-12-14T04:25:01;4.33;99.99
64599;SHT31;51008;51.504;11.548;2023-12-14T04:30:03;4.35;99.99
64599;SHT31;51008;51.504;11.548;2023-12-14T04:35:05;4.28;99.99
64599;SHT31;51008;51.504;11.548;2023-12-14T04:40:06;4.21;99.99
64599;SHT31;51008;51.504;11.548;2023-12-14T04:45:08;4.22;99.99
64599;SHT31;51008;51.504;11.548;2023-12-14T04:50:09;4.18;99.99
64599;SHT31;51008;51.504;11.548;2023-12-14T04:55:10;4.18;99.99
64599;SHT31;51008;51.504;11.548;2023-12-14T05:00:12;4.12;99.99
64599;SHT31;51008;51.504;11.548;2023-12-14T05:05:13;4.09;99.99
64599;SHT31;51008;51.504;11.548;2023-12-14T05:10:14;4.08;99.99
64599;SHT31;51008;51.504;11.548;2023-12-14T05:15:15;4.02;99.99
64599;SHT31;51008;51.504;11.548;2023-12-14T05:20:16;3.95;99.99
64599;SHT31;51008;51.504;11.548;2023-12-14T05:25:17;3.98;99.99
64599;SHT31;51008;51.504;11.548;2023-12-14T05:30:19;3.93;99.99
64599;SHT31;51008;51.504;11.548;2023-12-14T05:35:20;3.94;99.99
64599;SHT31;51008;51.504;11.548;2023-12-14T05:40:21;3.91;99.99
64599;SHT31;51008;51.504;11.548;2023-12-14T05:45:22;3.93;99.99
64599;SHT31;51008;51.504;11.548;2023-12-14T05:50:23;3.88;99.99
64599;SHT31;51008;51.504;11.548;2023-12-14T05:55:24;3.91;99.99
64599;SHT31;51008;51.504;11.548;2023-12-14T06:00:25;3.91;99.99
64599;SHT31;51008;51.504;11.548;2023-12-14T06:05:26;3.90;99.99
64599;SHT31;51008;51.504;11.548;2023-12-14T06:10:27;3.90;99.99
64599;SHT31;51008;51.504;11.548;2023-12-14T06:15:28;3.90;99.99
64599;SHT31;51008;51.504;11.548;2023-12-14T06:20:30;3.90;99.99
64599;SHT31;51008;51.504;11.548;2023-12-14T06:25:31;3.87;99.99
64599;SHT31;51008;51.504;11.548;2023-12-14T06:30:32;3.81;99.99
64599;SHT31;51008;51.504;11.548;2023-12-14T06:35:33;3.76;99.99
64599;SHT31;51008;51.504;11.548;2023-12-14T06:40:35;3.69;99.99
64599;SHT31;51008;51.504;11.548;2023-12-14T06:45:38;3.69;99.99
64599;SHT31;51008;51.504;11.548;2023-12-14T06:50:39;3.70;99.99
64599;SHT31;51008;51.504;11.548;2023-12-14T06:55:40;3.66;99.99
64599;SHT31;51008;51.504;11.548;2023-12-14T07:00:42;3.69;99.99
64599;SHT31;51008;51.504;11.548;2023-12-14T07:05:43;3.67;99.99
64599;SHT31;51008;51.504;11.548;2023-12-14T07:10:44;3.66;99.99
64599;SHT31;51008;51.504;11.548;2023-12-14T07:15:45;3.66;99.99
64599;SHT31;51008;51.504;11.548;2023-12-14T07:20:46;3.67;99.99
64599;SHT31;51008;51.504;11.548;2023-12-14T07:25:47;3.59;99.99
64599;SHT31;51008;51.504;11.548;2023-12-14T07:30:48;3.60;99.99
64599;SHT31;51008;51.504;11.548;2023-12-14T07:35:49;3.60;99.99
64599;SHT31;51008;51.504;11.548;2023-12-14T07:40:50;3.60;99.99
64599;SHT31;51008;51.504;11.548;2023-12-14T07:45:51;3.59;99.99
64599;SHT31;51008;51.504;11.548;2023-12-14T07:50:52;3.59;99.99
64599;SHT31;51008;51.504;11.548;2023-12-14T07:55:53;3.58;99.99
64599;SHT31;51008;51.504;11.548;2023-12-14T08:00:54;3.58;99.99
64599;SHT31;51008;51.504;11.548;2023-12-14T08:05:55;3.58;99.99
64599;SHT31;51008;51.504;11.548;2023-12-14T08:10:56;3.60;99.99
64599;SHT31;51008;51.504;11.548;2023-12-14T08:15:57;3.63;99.99
64599;SHT31;51008;51.504;11.548;2023-12-14T08:20:58;3.66;99.99
64599;SHT31;51008;51.504;11.548;2023-12-14T08:25:59;3.60;99.99
64599;SHT31;51008;51.504;11.548;2023-12-14T08:31:00;3.58;99.99
64599;SHT31;51008;51.504;11.548;2023-12-14T08:36:02;3.55;99.99
64599;SHT31;51008;51.504;11.548;2023-12-14T08:41:03;3.53;99.99
64599;SHT31;51008;51.504;11.548;2023-12-14T08:46:04;3.48;99.99
64599;SHT31;51008;51.504;11.548;2023-12-14T08:51:05;3.46;99.99
64599;SHT31;51008;51.504;11.548;2023-12-14T08:56:08;3.40;99.99
64599;SHT31;51008;51.504;11.548;2023-12-14T09:01:09;3.43;99.99
64599;SHT31;51008;51.504;11.548;2023-12-14T09:06:10;3.38;99.99
64599;SHT31;51008;51.504;11.548;2023-12-14T09:11:11;3.39;99.99
64599;SHT31;51008;51.504;11.548;2023-12-14T09:16:12;3.40;99.99
64599;SHT31;51008;51.504;11.548;2023-12-14T09:21:13;3.38;99.99
64599;SHT31;51008;51.504;11.548;2023-12-14T09:26:14;3.35;99.99
64599;SHT31;51008;51.504;11.548;2023-12-14T09:31:15;3.33;99.99
64599;SHT31;51008;51.504;11.548;2023-12-14T09:36:16;3.36;99.99
64599;SHT31;51008;51.504;11.548;2023-12-14T09:41:17;3.39;99.99
64599;SHT31;51008;51.504;11.548;2023-12-14T09:46:21;3.46;99.99
64599;SHT31;51008;51.504;11.548;2023-12-14T09:51:22;3.53;99.99
64599;SHT31;51008;51.504;11.548;2023-12-14T09:56:24;3.58;99.99
64599;SHT31;51008;51.504;11.548;2023-12-14T10:01:27;3.67;99.99
64599;SHT31;51008;51.504;11.548;2023-12-14T10:06:28;3.69;99.99
64599;SHT31;51008;51.504;11.548;2023-12-14T10:11:30;3.66;99.92
64599;SHT31;51008;51.504;11.548;2023-12-14T10:16:32;3.59;99.66
64599;SHT31;51008;51.504;11.548;2023-12-14T10:21:34;3.53;99.82
64599;SHT31;51008;51.504;11.548;2023-12-14T10:26:35;3.50;99.74
64599;SHT31;51008;51.504;11.548;2023-12-14T10:31:37;3.50;99.99
64599;SHT31;51008;51.504;11.548;2023-12-14T10:36:38;3.52;99.99
64599;SHT31;51008;51.504;11.548;2023-12-14T10:41:39;3.48;99.99
64599;SHT31;51008;51.504;11.548;2023-12-14T10:46:41;3.50;99.99
64599;SHT31;51008;51.504;11.548;2023-12-14T10:51:43;3.49;99.99
64599;SHT31;51008;51.504;11.548;2023-12-14T10:56:44;3.44;99.99
64599;SHT31;51008;51.504;11.548;2023-12-14T11:01:51;3.53;99.99
64599;SHT31;51008;51.504;11.548;2023-12-14T11:06:57;3.50;99.77
64599;SHT31;51008;51.504;11.548;2023-12-14T11:11:58;3.52;99.99
64599;SHT31;51008;51.504;11.548;2023-12-14T11:17:06;3.55;99.96
64599;SHT31;51008;51.504;11.548;2023-12-14T11:27:08;3.58;99.87
64599;SHT31;51008;51.504;11.548;2023-12-14T11:32:09;3.59;99.65
64599;SHT31;51008;51.504;11.548;2023-12-14T11:37:10;3.58;99.80
64599;SHT31;51008;51.504;11.548;2023-12-14T11:42:11;3.55;99.61
64599;SHT31;51008;51.504;11.548;2023-12-14T11:47:12;3.55;99.24
64599;SHT31;51008;51.504;11.548;2023-12-14T11:52:14;3.50;99.20
64599;SHT31;51008;51.504;11.548;2023-12-14T11:57:16;3.53;99.30
64599;SHT31;51008;51.504;11.548;2023-12-14T12:02:23;3.49;98.92
64599;SHT31;51008;51.504;11.548;2023-12-14T12:07:24;3.50;98.84
64599;SHT31;51008;51.504;11.548;2023-12-14T12:12:25;3.49;99.35
64599;SHT31;51008;51.504;11.548;2023-12-14T12:17:26;3.48;99.25
64599;SHT31;51008;51.504;11.548;2023-12-14T12:22:27;3.44;98.98
64599;SHT31;51008;51.504;11.548;2023-12-14T12:27:28;3.43;98.94
64599;SHT31;51008;51.504;11.548;2023-12-14T12:32:29;3.43;98.53
64599;SHT31;51008;51.504;11.548;2023-12-14T12:37:30;3.43;98.94
64599;SHT31;51008;51.504;11.548;2023-12-14T12:42:31;3.50;98.95
64599;SHT31;51008;51.504;11.548;2023-12-14T12:47:32;3.50;98.56
64599;SHT31;51008;51.504;11.548;2023-12-14T12:52:33;3.56;98.31
64599;SHT31;51008;51.504;11.548;2023-12-14T12:57:35;3.56;98.29
64599;SHT31;51008;51.504;11.548;2023-12-14T13:02:45;3.50;98.17
64599;SHT31;51008;51.504;11.548;2023-12-14T13:07:46;3.50;98.11
64599;SHT31;51008;51.504;11.548;2023-12-14T13:12:48;3.50;97.61
64599;SHT31;51008;51.504;11.548;2023-12-14T13:17:48;3.50;97.92
64599;SHT31;51008;51.504;11.548;2023-12-14T13:22:50;3.52;97.97
64599;SHT31;51008;51.504;11.548;2023-12-14T13:27:50;3.50;98.06
64599;SHT31;51008;51.504;11.548;2023-12-14T13:32:52;3.48;98.19
64599;SHT31;51008;51.504;11.548;2023-12-14T13:37:53;3.49;98.01
64599;SHT31;51008;51.504;11.548;2023-12-14T13:42:54;3.53;98.36
64599;SHT31;51008;51.504;11.548;2023-12-14T13:47:55;3.56;98.17
64599;SHT31;51008;51.504;11.548;2023-12-14T13:52:56;3.59;98.30
64599;SHT31;51008;51.504;11.548;2023-12-14T13:57:57;3.60;98.48
64599;SHT31;51008;51.504;11.548;2023-12-14T14:02:58;3.59;98.31
64599;SHT31;51008;51.504;11.548;2023-12-14T14:07:59;3.60;98.17
64599;SHT31;51008;51.504;11.548;2023-12-14T14:13:00;3.59;98.09
64599;SHT31;51008;51.504;11.548;2023-12-14T14:18:02;3.59;98.09
64599;SHT31;51008;51.504;11.548;2023-12-14T14:23:03;3.56;97.98
64599;SHT31;51008;51.504;11.548;2023-12-14T14:28:04;3.50;98.17
64599;SHT31;51008;51.504;11.548;2023-12-14T14:33:05;3.48;98.34
64599;SHT31;51008;51.504;11.548;2023-12-14T14:38:06;3.43;98.80
64599;SHT31;51008;51.504;11.548;2023-12-14T14:43:10;3.48;98.71
64599;SHT31;51008;51.504;11.548;2023-12-14T14:48:14;3.39;99.04
64599;SHT31;51008;51.504;11.548;2023-12-14T14:53:15;3.40;99.20
64599;SHT31;51008;51.504;11.548;2023-12-14T14:58:16;3.40;99.32
64599;SHT31;51008;51.504;11.548;2023-12-14T15:03:17;3.42;99.36
64599;SHT31;51008;51.504;11.548;2023-12-14T15:08:18;3.42;99.31
64599;SHT31;51008;51.504;11.548;2023-12-14T15:13:19;3.35;98.96
64599;SHT31;51008;51.504;11.548;2023-12-14T15:18:21;3.43;98.86
64599;SHT31;51008;51.504;11.548;2023-12-14T15:23:22;3.44;98.60
64599;SHT31;51008;51.504;11.548;2023-12-14T15:28:23;3.42;98.63
64599;SHT31;51008;51.504;11.548;2023-12-14T15:33:24;3.38;98.80
64599;SHT31;51008;51.504;11.548;2023-12-14T15:38:25;3.36;98.90
64599;SHT31;51008;51.504;11.548;2023-12-14T15:43:26;3.35;98.95
64599;SHT31;51008;51.504;11.548;2023-12-14T15:48:27;3.36;98.82
64599;SHT31;51008;51.504;11.548;2023-12-14T15:53:27;3.38;98.67
64599;SHT31;51008;51.504;11.548;2023-12-14T15:58:28;3.39;98.79
64599;SHT31;51008;51.504;11.548;2023-12-14T16:03:29;3.39;98.76
64599;SHT31;51008;51.504;11.548;2023-12-14T16:08:30;3.38;98.95
64599;SHT31;51008;51.504;11.548;2023-12-14T16:13:31;3.42;98.91
64599;SHT31;51008;51.504;11.548;2023-12-14T16:18:33;3.43;98.53
64599;SHT31;51008;51.504;11.548;2023-12-14T16:23:33;3.48;98.51
64599;SHT31;51008;51.504;11.548;2023-12-14T16:28:34;3.39;98.74
64599;SHT31;51008;51.504;11.548;2023-12-14T16:33:39;3.44;98.64
64599;SHT31;51008;51.504;11.548;2023-12-14T16:38:40;3.42;98.69
64599;SHT31;51008;51.504;11.548;2023-12-14T16:43:41;3.42;98.64
64599;SHT31;51008;51.504;11.548;2023-12-14T16:48:42;3.42;98.91
64599;SHT31;51008;51.504;11.548;2023-12-14T16:53:43;3.44;98.81
64599;SHT31;51008;51.504;11.548;2023-12-14T16:58:45;3.40;98.95
64599;SHT31;51008;51.504;11.548;2023-12-14T17:03:46;3.38;99.39
64599;SHT31;51008;51.504;11.548;2023-12-14T17:08:47;3.39;99.54
64599;SHT31;51008;51.504;11.548;2023-12-14T17:13:48;3.35;99.73
64599;SHT31;51008;51.504;11.548;2023-12-14T17:18:49;3.38;99.82
64599;SHT31;51008;51.504;11.548;2023-12-14T17:23:51;3.42;99.56
64599;SHT31;51008;51.504;11.548;2023-12-14T17:28:55;3.43;99.72
64599;SHT31;51008;51.504;11.548;2023-12-14T17:33:56;3.38;99.65
64599;SHT31;51008;51.504;11.548;2023-12-14T17:38:57;3.40;99.74
64599;SHT31;51008;51.504;11.548;2023-12-14T17:43:58;3.46;99.56
64599;SHT31;51008;51.504;11.548;2023-12-14T17:48:59;3.43;99.69
64599;SHT31;51008;51.504;11.548;2023-12-14T17:54:00;3.46;99.85
64599;SHT31;51008;51.504;11.548;2023-12-14T17:59:01;3.43;99.99
64599;SHT31;51008;51.504;11.548;2023-12-14T18:04:03;3.40;99.99
64599;SHT31;51008;51.504;11.548;2023-12-14T18:09:04;3.44;99.99
64599;SHT31;51008;51.504;11.548;2023-12-14T18:14:05;3.49;99.99
64599;SHT31;51008;51.504;11.548;2023-12-14T18:19:06;3.48;99.99
64599;SHT31;51008;51.504;11.548;2023-12-14T18:24:07;3.44;99.99
64599;SHT31;51008;51.504;11.548;2023-12-14T18:29:08;3.42;99.99
64599;SHT31;51008;51.504;11.548;2023-12-14T18:34:09;3.42;99.99
64599;SHT31;51008;51.504;11.548;2023-12-14T18:39:11;3.42;99.99
64599;SHT31;51008;51.504;11.548;2023-12-14T18:44:11;3.39;99.99
64599;SHT31;51008;51.504;11.548;2023-12-14T18:49:12;3.39;99.99
64599;SHT31;51008;51.504;11.548;2023-12-14T18:54:14;3.36;99.99
64599;SHT31;51008;51.504;11.548;2023-12-14T18:59:15;3.39;99.99
64599;SHT31;51008;51.504;11.548;2023-12-14T19:04:19;3.38;99.99
64599;SHT31;51008;51.504;11.548;2023-12-14T19:09:20;3.40;99.99
64599;SHT31;51008;51.504;11.548;2023-12-14T19:14:21;3.38;99.99
64599;SHT31;51008;51.504;11.548;2023-12-14T19:19:25;3.35;99.99
64599;SHT31;51008;51.504;11.548;2023-12-14T19:24:26;3.33;99.99
64599;SHT31;51008;51.504;11.548;2023-12-14T19:29:27;3.35;99.99
64599;SHT31;51008;51.504;11.548;2023-12-14T19:34:28;3.32;99.99
64599;SHT31;51008;51.504;11.548;2023-12-14T19:39:29;3.28;99.99
64599;SHT31;51008;51.504;11.548;2023-12-14T19:44:30;3.26;99.99
64599;SHT31;51008;51.504;11.548;2023-12-14T19:49:32;3.25;99.99
64599;SHT31;51008;51.504;11.548;2023-12-14T19:54:33;3.25;99.99
64599;SHT31;51008;51.504;11.548;2023-12-14T19:59:34;3.25;99.99
64599;SHT31;51008;51.504;11.548;2023-12-14T20:04:35;3.28;99.99
64599;SHT31;51008;51.504;11.548;2023-12-14T20:09:36;3.24;99.99
64599;SHT31;51008;51.504;11.548;2023-12-14T20:14:37;3.25;99.99
64599;SHT31;51008;51.504;11.548;2023-12-14T20:19:38;3.25;99.99
64599;SHT31;51008;51.504;11.548;2023-12-14T20:24:41;3.21;99.99
64599;SHT31;51008;51.504;11.548;2023-12-14T20:29:42;3.24;99.99
64599;SHT31;51008;51.504;11.548;2023-12-14T20:34:43;3.25;99.99
64599;SHT31;51008;51.504;11.548;2023-12-14T20:39:44;3.31;99.99
64599;SHT31;51008;51.504;11.548;2023-12-14T20:44:45;3.35;99.99
64599;SHT31;51008;51.504;11.548;2023-12-14T20:49:46;3.31;99.99
64599;SHT31;51008;51.504;11.548;2023-12-14T20:54:47;3.32;99.99
64599;SHT31;51008;51.504;11.548;2023-12-14T20:59:49;3.32;99.99
64599;SHT31;51008;51.504;11.548;2023-12-14T21:04:49;3.26;99.99
64599;SHT31;51008;51.504;11.548;2023-12-14T21:09:51;3.29;99.99
64599;SHT31;51008;51.504;11.548;2023-12-14T21:14:52;3.32;99.99
64599;SHT31;51008;51.504;11.548;2023-12-14T21:19:53;3.33;99.99
64599;SHT31;51008;51.504;11.548;2023-12-14T21:24:55;3.35;99.99
64599;SHT31;51008;51.504;11.548;2023-12-14T21:29:56;3.35;99.99
64599;SHT31;51008;51.504;11.548;2023-12-14T21:34:57;3.39;99.85
64599;SHT31;51008;51.504;11.548;2023-12-14T21:39:58;3.35;99.55
64599;SHT31;51008;51.504;11.548;2023-12-14T21:44:59;3.26;99.72
64599;SHT31;51008;51.504;11.548;2023-12-14T21:50:01;3.25;99.68
64599;SHT31;51008;51.504;11.548;2023-12-14T21:55:02;3.25;99.55
64599;SHT31;51008;51.504;11.548;2023-12-14T22:00:03;3.21;99.34
64599;SHT31;51008;51.504;11.548;2023-12-14T22:05:05;3.19;99.40
64599;SHT31;51008;51.504;11.548;2023-12-14T22:10:07;3.14;99.47
64599;SHT31;51008;51.504;11.548;2023-12-14T22:15:08;3.08;99.08
64599;SHT31;51008;51.504;11.548;2023-12-14T22:20:10;2.94;99.13
64599;SHT31;51008;51.504;11.548;2023-12-14T22:25:31;2.79;99.06
64599;SHT31;51008;51.504;11.548;2023-12-14T22:30:53;2.75;99.06
64599;SHT31;51008;51.504;11.548;2023-12-14T22:35:54;2.67;99.16
64599;SHT31;51008;51.504;11.548;2023-12-14T22:40:55;2.63;99.46
64599;SHT31;51008;51.504;11.548;2023-12-14T22:45:56;2.70;99.38
64599;SHT31;51008;51.504;11.548;2023-12-14T22:50:57;2.76;98.90
64599;SHT31;51008;51.504;11.548;2023-12-14T22:55:58;2.79;97.96
64599;SHT31;51008;51.504;11.548;2023-12-14T23:00:59;2.64;98.02
64599;SHT31;51008;51.504;11.548;2023-12-14T23:06:00;2.50;98.31
64599;SHT31;51008;51.504;11.548;2023-12-14T23:11:02;2.54;98.68
64599;SHT31;51008;51.504;11.548;2023-12-14T23:16:03;2.57;98.94
64599;SHT31;51008;51.504;11.548;2023-12-14T23:21:05;2.63;98.89
64599;SHT31;51008;51.504;11.548;2023-12-14T23:26:06;2.54;98.63
64599;SHT31;51008;51.504;11.548;2023-12-14T23:31:07;2.39;98.30
64599;SHT31;51008;51.504;11.548;2023-12-14T23:36:09;2.22;98.21
64599;SHT31;51008;51.504;11.548;2023-12-14T23:41:10;2.03;98.30
64599;SHT31;51008;51.504;11.548;2023-12-14T23:46:11;1.89;98.54
64599;SHT31;51008;51.504;11.548;2023-12-14T23:51:12;1.80;98.95
64599;SHT31;51008;51.504;11.548;2023-12-14T23:56:13;1.65;98.98
